ADDS METAR Data INFO
IDs: Format: Raw Decoded Include TAF

Data at: 0936 UTC 19 Jul 2018

METAR for:KHAO (Hamilton/Butler Cnty, OH, US)
Text:KHAO 190853Z AUTO 00000KT 10SM CLR 16/14 A3005 RMK AO2 SLP172 T01560139 55002
Temperature: 15.6°C ( 60°F)
Dewpoint: 13.9°C ( 57°F) [RH = 90%]
Pressure (altimeter):30.05 inches Hg (1017.7 mb) [Sea level pressure: 1017.2 mb]
Winds:calm
Visibility:10 or more sm (16+ km)
Ceiling:at least 12,000 feet AGL
Clouds:sky clear below 12,000 feet AGL
QC Flag:automated observation with no human augmentation